Time;durP1;ratioP1;P1;durP2;ratioP2;P2;SDS_P1;SDS_P2;PMS_P1;PMS_P2;Temp;Humidity;BMP_temperature;BMP_pressure;BME280_temperature;BME280_humidity;BME280_pressure;Samples;Min_cycle;Max_cycle;Signal;HPM_P1;HPM_P2
2022/06/29 00:01:56;;;;;;;39.28;19.33;;;;;;;30.28;71.00;100353.34;5078546;28;70088;-36
2022/06/29 00:04:27;;;;;;;29.02;20.73;;;;;;;30.36;71.52;100359.47;5072573;28;65421;-35
2022/06/29 00:06:58;;;;;;;27.00;20.52;;;;;;;30.40;72.42;100366.91;5075141;28;69348;-36
2022/06/29 00:09:29;;;;;;;31.42;21.27;;;;;;;30.41;71.96;100354.19;5074003;28;66520;-34
2022/06/29 00:12:01;;;;;;;29.88;21.25;;;;;;;30.53;72.90;100368.56;5078158;28;69859;-36
2022/06/29 00:14:41;;;;;;;24.50;20.92;;;;;;;30.60;73.02;100366.63;5077727;28;66084;-36
2022/06/29 00:17:19;;;;;;;25.20;20.45;;;;;;;30.62;72.60;100369.91;5058887;28;69669;-35
2022/06/29 00:19:50;;;;;;;23.58;20.02;;;;;;;30.69;72.44;100365.22;5075940;28;66121;-36
2022/06/29 00:22:21;;;;;;;26.70;20.33;;;;;;;30.69;72.98;100365.22;5077939;28;69855;-36
2022/06/29 00:24:52;;;;;;;27.17;19.40;;;;;;;30.74;72.89;100367.25;5077041;28;66045;-36
2022/06/29 00:27:24;;;;;;;23.77;19.33;;;;;;;30.77;72.88;100366.78;5079689;27;69773;-37
2022/06/29 00:29:55;;;;;;;21.02;17.98;;;;;;;30.84;72.00;100369.41;5059382;28;65810;-37
2022/06/29 00:32:26;;;;;;;28.02;17.55;;;;;;;30.86;71.96;100375.41;5062646;28;69987;-37
2022/06/29 00:34:59;;;;;;;18.83;16.70;;;;;;;30.89;72.03;100383.06;5071553;28;67528;-36
2022/06/29 00:37:30;;;;;;;18.77;16.45;;;;;;;30.92;71.83;100385.31;5067893;28;70566;-37
2022/06/29 00:40:03;;;;;;;22.80;15.45;;;;;;;30.75;71.44;100368.06;5070941;28;65142;-37
2022/06/29 00:42:34;;;;;;;16.60;14.40;;;;;;;30.94;71.60;100388.63;5073961;28;71077;-37
2022/06/29 00:45:06;;;;;;;15.73;14.05;;;;;;;31.03;69.27;100383.69;5068298;28;65206;-38
2022/06/29 00:47:37;;;;;;;13.07;11.68;;;;;;;31.10;68.42;100384.41;5076480;28;70058;-37
2022/06/29 00:50:08;;;;;;;13.00;12.00;;;;;;;31.12;68.04;100377.72;5067841;28;66363;-36
2022/06/29 00:52:42;;;;;;;12.23;11.13;;;;;;;31.25;68.01;100376.63;5076549;28;70146;-37
2022/06/29 00:55:19;;;;;;;13.13;11.82;;;;;;;31.14;68.00;100351.19;5075751;28;65717;-37
2022/06/29 00:57:52;;;;;;;12.73;11.45;;;;;;;31.22;67.46;100351.91;5072667;27;70339;-38
2022/06/29 01:00:23;;;;;;;11.82;10.88;;;;;;;31.46;67.12;100386.13;5073089;28;67019;-36
2022/06/29 01:02:55;;;;;;;11.73;10.88;;;;;;;31.51;66.60;100382.69;5069172;28;69695;-38
2022/06/29 01:05:30;;;;;;;11.95;10.20;;;;;;;31.24;66.59;100322.69;5063754;28;66227;-37
2022/06/29 01:08:02;;;;;;;12.98;10.80;;;;;;;31.59;66.11;100374.19;5066174;28;70353;-36
2022/06/29 01:10:32;;;;;;;10.50;9.68;;;;;;;31.65;65.82;100380.53;5070822;28;66583;-37
2022/06/29 01:13:03;;;;;;;10.85;9.98;;;;;;;31.61;66.04;100372.88;5068318;28;70147;-37
2022/06/29 01:15:34;;;;;;;10.65;9.75;;;;;;;31.73;65.91;100386.47;5077013;28;66688;-37
2022/06/29 01:18:05;;;;;;;10.70;9.87;;;;;;;31.75;65.77;100380.78;5066028;28;69392;-36
2022/06/29 01:20:36;;;;;;;9.93;9.25;;;;;;;31.78;65.53;100378.41;5065099;28;67346;-38
2022/06/29 01:23:07;;;;;;;11.00;9.88;;;;;;;31.81;65.37;100374.41;5072740;28;70821;-37
2022/06/29 01:25:39;;;;;;;11.02;9.90;;;;;;;31.84;64.87;100368.50;5076870;28;65855;-36
2022/06/29 01:28:09;;;;;;;9.45;8.82;;;;;;;31.88;65.07;100366.97;5076018;28;70616;-38
2022/06/29 01:30:40;;;;;;;8.45;7.93;;;;;;;31.85;64.85;100362.03;5066501;28;66281;-37
2022/06/29 01:33:11;;;;;;;8.70;7.68;;;;;;;31.92;64.61;100379.00;5071613;28;70603;-36
2022/06/29 01:35:42;;;;;;;10.87;7.57;;;;;;;31.95;64.84;100383.94;5067925;28;66386;-35
2022/06/29 01:38:13;;;;;;;8.50;7.72;;;;;;;31.91;64.43;100371.94;5073023;28;70045;-37
2022/06/29 01:40:45;;;;;;;9.15;8.48;;;;;;;32.01;64.08;100385.72;5076657;28;65963;-36
2022/06/29 01:43:16;;;;;;;8.60;7.67;;;;;;;32.02;64.43;100390.06;5066249;28;69947;-37
2022/06/29 01:45:47;;;;;;;7.68;7.13;;;;;;;32.05;63.83;100386.88;5073132;28;65645;-36
2022/06/29 01:48:18;;;;;;;7.72;7.13;;;;;;;32.08;64.01;100395.59;5069491;28;72225;-37
2022/06/29 01:50:49;;;;;;;8.32;7.78;;;;;;;32.11;63.77;100386.97;5071542;28;65775;-37
2022/06/29 01:53:20;;;;;;;7.88;7.18;;;;;;;32.13;63.92;100406.56;5068376;28;70154;-36
2022/06/29 01:55:52;;;;;;;7.43;6.80;;;;;;;32.18;63.71;100409.38;5078258;28;65071;-38
2022/06/29 01:58:23;;;;;;;6.03;5.63;;;;;;;32.19;63.50;100400.19;5080354;28;69157;-37
2022/06/29 02:00:54;;;;;;;7.82;5.75;;;;;;;32.22;63.11;100402.41;5075465;28;67622;-36
2022/06/29 02:03:25;;;;;;;6.37;5.87;;;;;;;32.21;63.09;100403.47;5064364;28;71060;-37
2022/06/29 02:05:56;;;;;;;6.80;6.00;;;;;;;32.24;63.02;100405.72;5065076;28;66568;-37
2022/06/29 02:08:27;;;;;;;6.93;6.30;;;;;;;32.30;62.52;100418.31;5065100;28;69597;-38
2022/06/29 02:11:00;;;;;;;6.63;6.03;;;;;;;32.31;63.01;100422.66;5063403;28;65209;-37
2022/06/29 02:13:31;;;;;;;6.13;5.72;;;;;;;32.34;62.80;100414.03;5068871;28;70350;-37
2022/06/29 02:16:02;;;;;;;7.07;6.57;;;;;;;32.36;62.61;100421.94;5073030;28;66250;-37
2022/06/29 02:18:34;;;;;;;7.43;5.30;;;;;;;32.37;62.61;100424.41;5066275;28;69440;-37
2022/06/29 02:21:05;;;;;;;5.72;5.22;;;;;;;32.41;62.26;100420.16;5063214;28;66292;-37
2022/06/29 02:23:36;;;;;;;5.43;5.13;;;;;;;32.37;62.11;100407.28;5075289;28;70558;-36
2022/06/29 02:26:07;;;;;;;6.07;5.28;;;;;;;32.43;62.02;100407.16;5061891;28;65306;-37
2022/06/29 02:28:38;;;;;;;6.20;5.70;;;;;;;32.46;62.18;100409.44;5061906;28;70989;-36
2022/06/29 02:36:48;;;;;;;5.30;4.68;;;;;;;32.54;61.79;100407.38;5073301;28;65981;-37
2022/06/29 02:39:20;;;;;;;4.88;4.57;;;;;;;32.57;61.62;100412.31;5065559;28;69817;-38
2022/06/29 02:41:51;;;;;;;4.90;4.50;;;;;;;32.53;61.78;100392.16;5071295;28;67039;-36
2022/06/29 02:44:22;;;;;;;4.90;4.43;;;;;;;32.60;61.66;100406.44;5067200;28;69575;-39
2022/06/29 02:46:53;;;;;;;4.50;4.20;;;;;;;32.63;61.75;100405.94;5072567;28;67406;-38
2022/06/29 02:49:24;;;;;;;4.63;4.22;;;;;;;32.64;61.65;100399.44;5074912;28;70523;-37
2022/06/29 02:51:55;;;;;;;4.13;3.83;;;;;;;32.65;61.61;100399.19;5072100;28;66133;-37
2022/06/29 02:54:26;;;;;;;4.80;4.07;;;;;;;32.68;61.57;100404.13;5072591;28;69519;-38
2022/06/29 02:56:57;;;;;;;4.53;4.13;;;;;;;32.70;61.44;100398.44;5074074;28;66054;-37
2022/06/29 02:59:31;;;;;;;4.35;3.90;;;;;;;32.74;61.23;100396.09;5071218;28;70286;-38
2022/06/29 03:02:02;;;;;;;3.97;3.67;;;;;;;32.76;61.04;100394.75;5072225;28;66750;-37
2022/06/29 03:04:34;;;;;;;3.50;3.27;;;;;;;32.76;61.22;100400.19;5063783;28;69306;-36
2022/06/29 03:07:07;;;;;;;3.78;3.47;;;;;;;32.80;60.92;100390.50;5063702;28;43719;-37
2022/06/29 03:09:38;;;;;;;4.03;3.73;;;;;;;32.74;60.88;100394.19;5063969;28;70239;-37
2022/06/29 03:12:09;;;;;;;4.00;3.70;;;;;;;32.78;60.83;100384.47;5073030;28;66673;-37
2022/06/29 03:14:41;;;;;;;4.35;3.97;;;;;;;32.84;60.79;100386.19;5075218;28;68854;-37
2022/06/29 03:17:12;;;;;;;4.57;4.18;;;;;;;32.80;61.01;100363.31;5064795;28;66222;-37
2022/06/29 03:19:45;;;;;;;4.57;4.05;;;;;;;32.90;60.67;100368.94;5072475;28;70333;-37
2022/06/29 03:22:17;;;;;;;4.47;4.18;;;;;;;32.91;60.70;100370.56;5067964;28;66289;-37
2022/06/29 03:24:47;;;;;;;4.22;3.45;;;;;;;32.92;60.85;100372.22;5067989;28;70286;-37
2022/06/29 03:27:18;;;;;;;4.25;3.80;;;;;;;32.97;60.73;100370.66;5074326;28;66415;-38
2022/06/29 03:29:49;;;;;;;3.88;3.65;;;;;;;32.99;60.48;100365.78;5072593;28;69967;-36
2022/06/29 03:32:20;;;;;;;4.05;3.75;;;;;;;32.94;60.35;100358.41;5069544;28;65673;-37
2022/06/29 03:34:51;;;;;;;4.18;3.78;;;;;;;32.99;60.50;100363.06;5052844;28;70257;-38
2022/06/29 03:37:22;;;;;;;4.93;3.80;;;;;;;33.02;60.43;100359.91;5077361;28;66269;-38
2022/06/29 03:39:53;;;;;;;4.15;3.85;;;;;;;33.06;60.49;100355.63;5065370;28;70019;-37
2022/06/29 03:42:24;;;;;;;6.90;3.90;;;;;;;33.07;60.66;100354.53;5075058;28;66357;-37
2022/06/29 03:44:55;;;;;;;3.90;3.60;;;;;;;33.10;60.33;100351.34;5053265;28;69944;-37
2022/06/29 03:47:26;;;;;;;5.57;4.47;;;;;;;33.08;60.53;100331.75;5074369;27;66796;-37
2022/06/29 03:49:57;;;;;;;5.43;3.70;;;;;;;33.04;60.36;100317.00;5070206;28;68966;-37
2022/06/29 03:52:28;;;;;;;5.88;4.13;;;;;;;33.15;60.17;100341.38;5068753;28;65618;-37
2022/06/29 03:54:59;;;;;;;4.63;4.25;;;;;;;33.08;60.42;100323.59;5073317;28;70536;-37
2022/06/29 03:57:30;;;;;;;4.78;4.40;;;;;;;33.16;60.36;100336.75;5067765;28;66507;-36
2022/06/29 04:00:02;;;;;;;3.90;3.60;;;;;;;33.19;60.25;100333.53;5067423;28;69526;-37
2022/06/29 04:02:40;;;;;;;3.97;3.58;;;;;;;33.23;60.10;100340.13;5064879;28;66214;-37
2022/06/29 04:05:11;;;;;;;3.97;3.58;;;;;;;33.22;60.20;100322.16;5074572;28;69572;-37
2022/06/29 04:07:43;;;;;;;4.28;3.97;;;;;;;33.25;59.99;100320.84;5061648;28;67055;-37
2022/06/29 04:10:13;;;;;;;5.30;4.90;;;;;;;33.25;59.79;100327.09;5058714;28;69691;-37
2022/06/29 04:12:45;;;;;;;4.20;3.95;;;;;;;33.27;60.04;100319.53;5050018;28;66083;-37
2022/06/29 04:15:16;;;;;;;5.03;4.63;;;;;;;33.28;59.93;100321.16;5043866;28;68972;-39
2022/06/29 04:17:47;;;;;;;4.93;4.35;;;;;;;33.28;59.95;100323.88;5074244;28;66063;-37
2022/06/29 04:23:07;;;;;;;6.18;3.83;;;;;;;33.33;59.97;100321.25;5066491;28;66301;-39
2022/06/29 04:25:38;;;;;;;3.97;3.75;;;;;;;33.35;59.73;100315.56;5070691;28;69186;-37
2022/06/29 04:28:16;;;;;;;6.53;4.22;;;;;;;33.38;59.75;100307.72;5065846;28;66257;-37
2022/06/29 04:30:47;;;;;;;8.32;4.07;;;;;;;33.38;59.53;100296.84;5068919;28;69253;-38
2022/06/29 04:33:18;;;;;;;5.60;5.10;;;;;;;33.42;59.75;100304.50;5065083;28;65351;-36
2022/06/29 04:35:49;;;;;;;4.47;3.88;;;;;;;33.43;59.59;100303.41;5073009;28;69381;-37
2022/06/29 04:38:20;;;;;;;4.40;4.10;;;;;;;33.45;59.59;100298.56;5073950;28;65834;-37
2022/06/29 04:40:51;;;;;;;7.05;5.18;;;;;;;33.41;59.58;100294.72;5073564;28;69613;-38
2022/06/29 04:43:22;;;;;;;4.97;4.57;;;;;;;33.44;59.53;100286.03;5073987;28;66138;-37
2022/06/29 04:48:43;;;;;;;5.15;4.63;;;;;;;33.52;59.45;100300.06;5070701;28;66388;-38
2022/06/29 04:51:15;;;;;;;7.73;4.93;;;;;;;33.52;59.51;100288.31;5083143;28;69953;-38
2022/06/29 04:53:48;;;;;;;4.85;4.45;;;;;;;33.37;59.24;100257.13;5074769;28;67263;-36
2022/06/29 04:56:20;;;;;;;4.78;4.15;;;;;;;33.56;59.00;100284.03;5076196;28;70042;-38
2022/06/29 04:58:53;;;;;;;5.00;4.60;;;;;;;33.53;59.20;100284.56;5064987;28;66377;-38
2022/06/29 05:01:26;;;;;;;4.28;4.07;;;;;;;33.61;59.16;100281.41;5058054;28;70313;-37
2022/06/29 05:04:01;;;;;;;4.55;4.32;;;;;;;33.62;59.22;100283.03;5064481;28;65743;-38
2022/06/29 05:06:32;;;;;;;4.03;3.67;;;;;;;33.65;59.23;100284.41;5074119;28;69663;-37
2022/06/29 05:09:04;;;;;;;4.03;3.72;;;;;;;33.63;59.17;100272.97;5075852;28;64939;-37
2022/06/29 05:11:35;;;;;;;4.67;4.27;;;;;;;33.66;58.97;100270.59;5045130;28;70619;-38
2022/06/29 05:14:05;;;;;;;6.07;4.13;;;;;;;33.68;58.84;100254.81;5073069;28;66502;-37
2022/06/29 05:16:37;;;;;;;4.28;3.97;;;;;;;33.70;58.75;100258.09;5065803;28;69912;-38
2022/06/29 05:19:09;;;;;;;4.35;4.05;;;;;;;33.74;58.60;100256.53;5064721;28;66228;-38
2022/06/29 05:21:39;;;;;;;4.07;3.83;;;;;;;33.74;58.53;100253.81;5073369;28;70664;-38
2022/06/29 05:24:10;;;;;;;4.13;3.75;;;;;;;33.79;58.83;100250.31;5072025;28;66226;-38
2022/06/29 05:26:42;;;;;;;4.07;3.67;;;;;;;33.79;58.62;100250.31;5071763;28;70357;-37
2022/06/29 05:29:13;;;;;;;4.68;4.28;;;;;;;33.77;58.49;100231.53;5065635;28;66144;-37
2022/06/29 05:31:44;;;;;;;4.47;3.95;;;;;;;33.81;58.56;100234.56;5075670;28;70142;-38
2022/06/29 05:34:15;;;;;;;4.95;4.43;;;;;;;33.79;58.80;100221.22;5079657;28;65936;-36
2022/06/29 05:36:47;;;;;;;4.50;3.83;;;;;;;33.90;58.20;100234.91;5078094;28;69593;-37
2022/06/29 05:39:18;;;;;;;4.95;3.83;;;;;;;33.83;58.62;100223.44;5076181;28;65928;-37
2022/06/29 05:41:49;;;;;;;4.30;4.00;;;;;;;33.92;58.34;100227.34;5078350;28;69448;-36
2022/06/29 05:44:20;;;;;;;5.60;4.33;;;;;;;33.96;58.26;100233.88;5075191;27;65996;-36
2022/06/29 05:46:51;;;;;;;4.67;4.37;;;;;;;33.96;58.41;100228.44;5079668;28;70177;-38
2022/06/29 05:49:22;;;;;;;4.97;4.57;;;;;;;33.98;58.34;100231.75;5076108;28;66046;-37
2022/06/29 05:51:53;;;;;;;4.60;4.18;;;;;;;34.00;57.93;100210.53;5081234;28;69457;-37
2022/06/29 05:54:27;;;;;;;4.85;4.03;;;;;;;34.01;58.15;100209.44;5076821;28;65604;-37
2022/06/29 05:56:58;;;;;;;4.50;4.20;;;;;;;34.07;57.78;100213.88;5068436;28;69588;-37
2022/06/29 05:59:29;;;;;;;4.28;4.00;;;;;;;34.08;58.04;100210.09;5061728;28;65370;-38
2022/06/29 06:02:00;;;;;;;4.93;4.63;;;;;;;34.09;57.79;100206.28;5067174;28;69565;-37
2022/06/29 06:04:31;;;;;;;4.80;4.50;;;;;;;34.10;57.63;100202.50;5068422;28;66426;-37
2022/06/29 06:07:02;;;;;;;4.60;4.20;;;;;;;34.14;57.84;100198.19;5073913;28;70095;-38
2022/06/29 06:09:33;;;;;;;4.70;4.40;;;;;;;34.17;57.66;100189.50;5072022;28;66926;-37
2022/06/29 06:12:05;;;;;;;5.38;4.88;;;;;;;34.14;57.46;100170.97;5074322;28;70052;-38
2022/06/29 06:14:39;;;;;;;4.53;4.20;;;;;;;34.24;57.49;100186.53;5080092;28;66291;-37
2022/06/29 06:17:10;;;;;;;4.17;3.93;;;;;;;34.19;57.58;100172.91;5077066;28;70620;-36
2022/06/29 06:19:41;;;;;;;4.70;4.40;;;;;;;34.28;57.36;100184.16;5058169;28;66315;-38
2022/06/29 06:22:12;;;;;;;5.20;4.43;;;;;;;34.30;57.56;100179.25;5078147;28;70719;-38
2022/06/29 06:24:43;;;;;;;4.87;4.43;;;;;;;34.33;57.14;100170.56;5074843;28;65317;-36
2022/06/29 06:27:14;;;;;;;4.40;4.10;;;;;;;34.37;57.49;100174.41;5073991;28;70069;-37
2022/06/29 06:29:45;;;;;;;5.25;4.75;;;;;;;34.40;57.21;100182.03;5081461;28;65881;-38
2022/06/29 06:32:17;;;;;;;4.65;4.07;;;;;;;34.41;57.04;100180.97;5073337;28;70911;-38
2022/06/29 06:34:48;;;;;;;4.63;4.30;;;;;;;34.43;57.02;100174.16;5077895;28;64867;-37
2022/06/29 06:37:19;;;;;;;4.43;4.13;;;;;;;34.46;57.20;100181.00;5072612;28;71128;-38
2022/06/29 06:42:40;;;;;;;4.35;4.05;;;;;;;34.50;56.77;100168.50;5073160;28;69491;-36
2022/06/29 06:45:11;;;;;;;3.97;3.67;;;;;;;34.54;57.23;100169.63;5075498;28;66210;-37
2022/06/29 06:47:42;;;;;;;3.90;3.67;;;;;;;34.56;57.07;100172.94;5071702;28;69944;-37
2022/06/29 06:50:13;;;;;;;4.23;3.87;;;;;;;34.59;56.86;100172.41;5064298;28;66807;-38
2022/06/29 06:52:44;;;;;;;6.77;4.40;;;;;;;34.58;57.11;100176.22;5061832;28;71000;-37
2022/06/29 06:55:15;;;;;;;4.35;3.95;;;;;;;34.58;57.01;100176.22;5074387;28;66165;-37
2022/06/29 06:57:46;;;;;;;4.35;4.03;;;;;;;34.61;56.85;100167.53;5078323;28;70089;-37
2022/06/29 07:00:18;;;;;;;4.18;3.88;;;;;;;34.59;56.39;100161.50;5077100;28;65084;-38
2022/06/29 07:02:49;;;;;;;4.40;3.97;;;;;;;34.64;56.60;100168.91;5076663;28;71710;-37
2022/06/29 07:05:20;;;;;;;3.97;3.67;;;;;;;34.68;56.42;100170.00;5075629;28;65702;-37
2022/06/29 07:07:51;;;;;;;4.00;3.70;;;;;;;34.69;56.69;100156.13;5076361;28;69085;-37
2022/06/29 07:10:22;;;;;;;4.13;3.83;;;;;;;34.72;56.64;100159.44;5076430;28;65492;-37
2022/06/29 07:12:53;;;;;;;4.17;3.87;;;;;;;34.74;56.61;100158.06;5055230;28;71071;-37
2022/06/29 07:15:24;;;;;;;;;;;;;;;34.47;56.98;100152.69;5077271;28;65670;-37
2022/06/29 07:17:55;;;;;;;3.88;3.58;;;;;;;34.77;56.42;100156.72;5071795;28;69518;-39
2022/06/29 07:20:28;;;;;;;3.47;3.27;;;;;;;34.79;56.11;100146.38;5071313;28;67423;-36
2022/06/29 07:22:59;;;;;;;3.50;3.17;;;;;;;34.82;56.21;100149.38;5071336;28;70362;-37
2022/06/29 07:25:30;;;;;;;3.43;3.13;;;;;;;34.83;55.88;100144.78;5077313;28;68054;-37
2022/06/29 07:28:01;;;;;;;3.63;3.33;;;;;;;34.85;56.52;100131.69;5074140;28;71318;-37
2022/06/29 07:30:33;;;;;;;3.63;3.35;;;;;;;34.86;56.14;100127.88;5069964;28;66712;-37
2022/06/29 07:33:04;;;;;;;3.72;3.42;;;;;;;34.88;56.23;100125.69;5065364;28;69868;-37
2022/06/29 07:35:36;;;;;;;3.80;3.00;;;;;;;34.89;55.48;100130.09;5069182;28;66295;-37
2022/06/29 07:38:09;;;;;;;4.38;3.55;;;;;;;34.83;55.67;100107.44;5062091;28;70862;-37
2022/06/29 07:40:40;;;;;;;3.47;3.17;;;;;;;34.84;55.67;100102.81;5073776;28;66882;-37
2022/06/29 07:43:11;;;;;;;4.10;3.57;;;;;;;34.90;55.80;100113.44;5069019;28;70737;-37
2022/06/29 07:45:43;;;;;;;4.43;3.17;;;;;;;34.91;55.40;100098.75;5068405;28;66285;-37
2022/06/29 07:48:18;;;;;;;2.80;2.60;;;;;;;34.91;55.48;100097.94;5051363;28;70534;-37
2022/06/29 07:50:49;;;;;;;3.55;3.33;;;;;;;34.93;55.89;100098.47;5068530;28;66309;-37
2022/06/29 07:53:21;;;;;;;3.75;2.70;;;;;;;34.92;55.94;100099.56;5065781;28;69071;-37
2022/06/29 07:55:53;;;;;;;4.28;3.25;;;;;;;34.91;55.57;100087.84;5075225;28;66206;-38
2022/06/29 07:58:24;;;;;;;2.58;2.42;;;;;;;34.95;55.49;100092.78;5060269;28;70028;-38
2022/06/29 08:00:55;;;;;;;9.00;3.20;;;;;;;34.95;55.51;100088.13;5072328;28;66096;-37
2022/06/29 08:03:26;;;;;;;2.80;2.60;;;;;;;34.93;55.33;100076.69;5075471;28;70084;-37
2022/06/29 08:05:58;;;;;;;3.08;2.88;;;;;;;34.95;55.29;100076.41;5077860;28;66681;-36
2022/06/29 08:08:29;;;;;;;3.50;3.20;;;;;;;34.95;55.89;100071.78;5074701;28;70605;-37
2022/06/29 08:11:02;;;;;;;2.80;2.60;;;;;;;34.99;55.53;100078.31;5083670;28;66293;-37
2022/06/29 08:13:33;;;;;;;3.92;3.10;;;;;;;34.97;55.51;100069.63;5074871;28;70227;-37
2022/06/29 08:16:08;;;;;;;3.23;3.00;;;;;;;34.90;55.68;100058.13;5058680;28;67197;-37
2022/06/29 08:18:38;;;;;;;3.95;3.15;;;;;;;34.97;55.22;100069.63;5067736;28;70417;-37
2022/06/29 08:21:09;;;;;;;3.40;3.10;;;;;;;34.98;55.30;100071.25;5079801;28;67003;-37
2022/06/29 08:23:40;;;;;;;2.70;2.50;;;;;;;34.99;55.66;100067.41;5048596;28;70848;-39
2022/06/29 08:26:15;;;;;;;3.80;2.72;;;;;;;34.92;55.64;100061.44;5061427;28;66320;-38
2022/06/29 08:29:06;;;;;;;4.10;3.10;;;;;;;34.98;55.09;100082.16;5072748;28;69718;-38
2022/06/29 08:31:43;;;;;;;2.83;2.63;;;;;;;35.02;55.44;100094.16;5069374;28;66905;-37
2022/06/29 08:34:16;;;;;;;2.67;2.15;;;;;;;35.02;55.50;100087.88;5074439;28;69797;-37
2022/06/29 08:36:47;;;;;;;3.10;2.72;;;;;;;35.03;55.76;100095.78;5070822;28;64928;-38
2022/06/29 08:39:19;;;;;;;3.33;2.80;;;;;;;35.01;55.29;100100.69;5070925;28;69311;-37
2022/06/29 08:41:52;;;;;;;2.53;2.33;;;;;;;34.87;55.01;100075.84;5071177;28;66170;-38
2022/06/29 08:44:23;;;;;;;2.88;2.60;;;;;;;35.02;55.29;100090.59;5078118;28;69756;-38
2022/06/29 08:46:55;;;;;;;2.60;2.40;;;;;;;35.01;55.29;100080.78;5069752;28;67632;-38
2022/06/29 08:49:26;;;;;;;4.30;2.77;;;;;;;35.02;55.56;100077.81;5078274;28;70700;-37
2022/06/29 08:51:58;;;;;;;3.15;2.95;;;;;;;35.00;55.27;100074.53;5078506;28;66080;-38
2022/06/29 08:54:28;;;;;;;;;;;;;;;34.75;55.72;100075.25;5071547;28;69417;-38
2022/06/29 08:57:04;;;;;;;3.08;2.88;;;;;;;35.02;55.49;100066.91;5076066;28;66298;-38
2022/06/29 08:59:36;;;;;;;3.33;2.55;;;;;;;34.79;55.22;100023.78;5047994;28;69876;-37
2022/06/29 09:02:27;;;;;;;3.00;2.67;;;;;;;35.02;55.62;100061.47;5072445;28;66381;-38
2022/06/29 09:04:58;;;;;;;2.70;2.50;;;;;;;35.02;55.35;100056.00;5069671;28;70175;-37
2022/06/29 09:07:29;;;;;;;2.72;2.53;;;;;;;35.04;55.56;100056.53;5072211;28;66617;-37
2022/06/29 09:10:03;;;;;;;2.93;2.73;;;;;;;34.92;55.24;100034.19;5063184;28;69558;-38
2022/06/29 09:12:34;;;;;;;3.17;2.88;;;;;;;35.01;55.65;100040.72;5062450;28;66036;-37
2022/06/29 09:15:07;;;;;;;;;;;;;;;34.76;56.40;100054.28;5079625;28;69848;-37
2022/06/29 09:17:39;;;;;;;3.47;2.70;;;;;;;34.98;55.14;100038.53;5080514;28;65381;-37
2022/06/29 09:20:13;;;;;;;3.10;2.58;;;;;;;35.01;55.25;100037.19;5072788;28;69679;-38
2022/06/29 09:23:02;;;;;;;3.10;2.42;;;;;;;35.04;55.25;100048.38;5077890;28;66562;-37
2022/06/29 09:25:33;;;;;;;2.58;2.38;;;;;;;34.99;55.86;100026.53;5074469;28;69328;-38
2022/06/29 09:28:17;;;;;;;4.22;2.10;;;;;;;35.01;55.33;100048.09;5075670;28;65115;-37
2022/06/29 09:30:48;;;;;;;3.90;2.88;;;;;;;35.05;55.84;100044.56;5065473;28;70661;-37
2022/06/29 09:33:24;;;;;;;2.58;2.38;;;;;;;35.03;55.64;100040.47;5064851;28;66139;-39
2022/06/29 09:36:10;;;;;;;3.28;3.00;;;;;;;34.96;55.95;100043.44;5069653;28;70116;-38
2022/06/29 09:38:42;;;;;;;4.40;2.65;;;;;;;34.95;55.89;100020.00;5077236;28;66623;-39
2022/06/29 09:41:14;;;;;;;3.20;2.90;;;;;;;34.70;55.80;99983.44;5069125;28;70285;-38
2022/06/29 09:43:46;;;;;;;5.15;2.85;;;;;;;35.02;55.64;100028.75;5053676;28;65465;-39
2022/06/29 09:46:17;;;;;;;4.28;2.95;;;;;;;35.00;55.68;100030.13;5070551;28;70161;-37
2022/06/29 09:48:49;;;;;;;4.13;3.40;;;;;;;34.98;55.86;100022.19;5067557;28;67341;-38
2022/06/29 09:51:33;;;;;;;3.53;2.60;;;;;;;35.01;55.60;100026.28;5066438;28;69920;-37
2022/06/29 09:54:10;;;;;;;2.92;2.72;;;;;;;34.99;56.10;100040.19;5071174;28;65673;-39
2022/06/29 09:56:51;;;;;;;2.67;2.47;;;;;;;34.87;56.11;100037.69;5061039;28;70437;-38
2022/06/29 10:02:41;;;;;;;3.95;2.97;;;;;;;34.99;55.84;100064.69;5075498;28;70156;-39
2022/06/29 10:05:17;;;;;;;6.90;2.70;;;;;;;34.95;56.39;100070.97;5053933;28;65574;-38
2022/06/29 10:07:51;;;;;;;3.28;2.47;;;;;;;35.00;56.21;100077.25;5077064;28;70627;-39
2022/06/29 10:10:26;;;;;;;4.18;2.80;;;;;;;34.92;57.49;100064.16;5071689;28;65842;-37
2022/06/29 10:16:42;;;;;;;3.50;3.20;;;;;;;34.59;58.28;100062.66;5074453;28;65280;-37
2022/06/29 10:19:34;;;;;;;7.28;2.80;;;;;;;34.56;59.05;100079.53;5076726;28;69139;-37
2022/06/29 10:22:05;;;;;;;3.33;3.03;;;;;;;34.44;59.52;100087.88;5058590;28;65318;-37
2022/06/29 10:24:37;;;;;;;5.63;3.63;;;;;;;34.32;59.72;100092.69;5061163;28;70375;-38
2022/06/29 10:27:08;;;;;;;6.13;4.25;;;;;;;34.26;59.77;100108.97;5058381;28;66287;-37
2022/06/29 10:29:39;;;;;;;4.43;4.07;;;;;;;34.25;60.34;100128.31;5072776;28;71255;-38
2022/06/29 10:32:14;;;;;;;8.63;4.95;;;;;;;34.23;60.41;100134.00;5078694;27;66458;-36
2022/06/29 10:37:49;;;;;;;6.53;4.20;;;;;;;34.14;60.36;100104.81;5074571;28;66901;-37
2022/06/29 10:40:25;;;;;;;6.03;4.32;;;;;;;34.24;60.07;100119.34;5074749;28;70150;-38
2022/06/29 10:43:07;;;;;;;5.65;4.00;;;;;;;34.50;59.32;100160.34;5071175;28;66767;-40
2022/06/29 10:45:47;;;;;;;8.20;3.97;;;;;;;34.60;59.38;100178.66;5070554;28;70676;-37
2022/06/29 10:48:20;;;;;;;9.35;3.95;;;;;;;34.63;59.01;100195.34;5065655;28;65763;-38
2022/06/29 10:50:52;;;;;;;5.60;4.03;;;;;;;34.63;59.48;100206.22;5074186;28;69693;-38
2022/06/29 10:53:24;;;;;;;4.40;3.80;;;;;;;34.67;59.23;100214.69;5079236;28;66264;-39
2022/06/29 10:55:56;;;;;;;7.60;4.05;;;;;;;34.70;58.63;100222.34;5055456;28;69734;-38
2022/06/29 10:58:26;;;;;;;;;;;;;;;34.37;60.03;100210.63;5069344;28;65232;-38
2022/06/29 11:00:57;;;;;;;4.45;4.00;;;;;;;34.64;59.16;100212.50;5058453;28;69731;-38
2022/06/29 11:03:28;;;;;;;4.30;3.87;;;;;;;34.67;58.74;100217.41;5070451;28;66045;-38
2022/06/29 11:12:02;;;;;;;4.97;4.47;;;;;;;34.40;59.05;100146.66;5076145;28;70264;-38
2022/06/29 11:17:40;;;;;;;5.50;5.00;;;;;;;34.63;60.11;100178.13;5077605;28;70109;-38
2022/06/29 11:20:19;;;;;;;20.67;7.55;;;;;;;34.49;60.73;100180.47;5077157;28;65833;-34
2022/06/29 11:22:53;;;;;;;17.08;9.35;;;;;;;34.35;61.36;100160.22;5076465;28;70097;-36
2022/06/29 11:25:34;;;;;;;15.60;9.55;;;;;;;34.32;62.05;100167.00;5071233;28;65329;-37
2022/06/29 11:28:06;;;;;;;11.60;9.65;;;;;;;34.13;62.08;100136.66;5074833;28;70083;-37
2022/06/29 11:30:38;;;;;;;20.00;10.60;;;;;;;34.24;62.34;100143.84;5070940;28;65339;-37
2022/06/29 11:33:11;;;;;;;20.10;11.07;;;;;;;34.01;63.58;100111.50;5074938;27;69948;-37
2022/06/29 11:35:42;;;;;;;13.20;9.70;;;;;;;34.16;62.77;100121.72;5073117;28;65644;-36
2022/06/29 11:38:16;;;;;;;;;;;;;;;33.96;63.84;100130.50;5077106;28;71456;-36
2022/06/29 11:40:50;;;;;;;20.05;9.52;;;;;;;34.30;62.21;100139.25;5074062;28;65547;-38
2022/06/29 11:43:42;;;;;;;10.52;8.70;;;;;;;34.36;61.69;100161.88;5042830;28;69844;-37
2022/06/29 11:46:20;;;;;;;;;;;;;;;34.07;62.93;100175.78;5079477;28;66156;-38
2022/06/29 11:51:52;;;;;;;10.47;8.33;;;;;;;34.37;61.79;100201.63;5072535;28;66152;-38
2022/06/29 11:54:41;;;;;;;12.75;9.25;;;;;;;34.35;61.54;100211.94;5074657;28;69616;-40
2022/06/29 11:57:15;;;;;;;9.85;8.88;;;;;;;34.18;61.11;100187.59;5041795;28;65180;-38
2022/06/29 11:59:47;;;;;;;15.68;8.40;;;;;;;34.44;61.75;100245.81;5040847;28;70340;-38
2022/06/29 12:02:18;;;;;;;;;;;;;;;34.11;62.82;100247.69;5057080;28;66535;-36
2022/06/29 12:04:49;;;;;;;8.23;7.43;;;;;;;34.41;62.23;100258.03;5069987;28;70207;-36
2022/06/29 12:07:21;;;;;;;9.45;8.02;;;;;;;34.18;63.83;100253.72;5048171;28;65987;-37
2022/06/29 12:09:52;;;;;;;8.98;8.13;;;;;;;34.19;63.96;100269.00;5074466;28;70510;-39
2022/06/29 12:12:23;;;;;;;8.70;7.90;;;;;;;34.09;64.36;100278.97;5076688;28;66767;-38
2022/06/29 12:14:54;;;;;;;8.98;8.23;;;;;;;34.01;64.44;100274.75;5059958;28;70242;-37
2022/06/29 12:17:25;;;;;;;7.87;7.17;;;;;;;33.99;64.96;100293.25;5064306;28;65629;-36
2022/06/29 12:19:56;;;;;;;8.65;7.85;;;;;;;33.93;65.45;100305.16;5076187;28;70721;-36
2022/06/29 12:22:43;;;;;;;7.82;7.05;;;;;;;33.93;65.33;100318.75;5073770;28;66403;-37
2022/06/29 12:25:14;;;;;;;8.43;7.73;;;;;;;33.86;65.00;100315.41;5076718;28;70181;-39